createdAt,value
2024-03-09T00:03:16.212Z,102.47
2024-03-09T00:08:20.252Z,96.35
2024-03-09T00:13:22.197Z,97.70
2024-03-09T00:18:41.190Z,91.25
2024-03-09T00:23:52.134Z,90.72
2024-03-09T00:28:56.188Z,83.18
2024-03-09T00:34:00.423Z,85.13
2024-03-09T00:39:05.296Z,79.90
2024-03-09T00:44:07.377Z,76.97
2024-03-09T00:49:11.414Z,81.32
2024-03-09T00:54:24.609Z,73.35
2024-03-09T00:59:26.633Z,74.32
2024-03-09T01:04:32.292Z,69.93
2024-03-09T01:09:35.511Z,71.47
2024-03-09T01:14:37.579Z,70.32
2024-03-09T01:19:41.648Z,67.00
2024-03-09T01:24:46.234Z,75.45
2024-03-09T01:29:50.210Z,72.57
2024-03-09T01:35:06.726Z,70.38
2024-03-09T01:40:21.795Z,72.63
2024-03-09T01:45:27.940Z,71.43
2024-03-09T01:50:31.103Z,73.57
2024-03-09T01:55:33.302Z,76.72
2024-03-09T02:00:38.615Z,76.63
2024-03-09T02:05:42.675Z,73.93
2024-03-09T02:10:44.993Z,71.50
2024-03-09T02:16:02.529Z,73.95
2024-03-09T02:21:07.405Z,72.10
2024-03-09T02:26:10.515Z,62.83
2024-03-09T02:31:15.302Z,61.83
2024-03-09T02:36:28.849Z,65.05
2024-03-09T02:41:30.849Z,63.70
2024-03-09T02:46:57.500Z,65.10
2024-03-09T02:52:00.641Z,58.60
2024-03-09T02:57:07.898Z,65.13
2024-03-09T03:02:37.811Z,63.97
2024-03-09T03:07:39.894Z,63.28
2024-03-09T03:12:47.746Z,57.95
2024-03-09T03:17:56.935Z,64.93
2024-03-09T03:23:14.235Z,68.78
2024-03-09T03:28:23.445Z,64.38
2024-03-09T03:33:34.727Z,65.47
2024-03-09T03:38:47.991Z,65.22
2024-03-09T03:44:03.262Z,63.30
2024-03-09T03:49:08.876Z,61.35
2024-03-09T03:54:14.056Z,63.03
2024-03-09T03:59:16.129Z,64.75
2024-03-09T04:04:18.106Z,60.45
2024-03-09T04:09:30.089Z,65.30
2024-03-09T04:14:32.538Z,68.88
2024-03-09T04:19:38.424Z,68.25
2024-03-09T04:24:44.353Z,69.63
2024-03-09T04:29:49.438Z,71.32
2024-03-09T04:34:54.766Z,66.70
2024-03-09T04:40:16.929Z,69.50
2024-03-09T04:45:26.786Z,71.07
2024-03-09T04:50:29.818Z,71.60
2024-03-09T04:55:33.086Z,73.53
2024-03-09T05:00:46.686Z,78.95
2024-03-09T05:05:48.619Z,94.18
2024-03-09T05:11:06.859Z,98.50
2024-03-09T05:16:09.101Z,104.43
2024-03-09T05:21:18.126Z,98.40
2024-03-09T05:26:33.683Z,95.75
2024-03-09T05:31:35.804Z,89.47
2024-03-09T05:36:45.004Z,86.38
2024-03-09T05:41:54.045Z,87.75
2024-03-09T05:47:05.214Z,86.85
2024-03-09T05:52:10.577Z,89.30
2024-03-09T05:57:34.336Z,84.10
2024-03-09T06:02:43.605Z,83.07
2024-03-09T06:08:04.215Z,80.60
2024-03-09T06:13:19.228Z,81.80
2024-03-09T06:18:29.344Z,77.95
2024-03-09T06:23:32.325Z,80.45
2024-03-09T06:28:41.710Z,81.28
2024-03-09T06:33:47.463Z,91.28
2024-03-09T06:39:01.484Z,75.93
2024-03-09T06:44:15.720Z,71.60
2024-03-09T06:49:19.224Z,70.55
2024-03-09T06:54:32.799Z,66.50
2024-03-09T06:59:42.134Z,64.45
2024-03-09T07:04:51.942Z,61.95
2024-03-09T07:09:56.080Z,58.45
2024-03-09T07:15:00.178Z,57.97
2024-03-09T07:20:12.717Z,58.15
2024-03-09T07:25:15.520Z,57.75
2024-03-09T07:30:20.066Z,49.97
2024-03-09T07:35:22.804Z,47.80
2024-03-09T07:40:36.031Z,48.60
2024-03-09T07:45:39.545Z,43.97
2024-03-09T07:50:50.225Z,46.22
2024-03-09T07:55:56.432Z,41.95
2024-03-09T08:01:00.666Z,39.67
2024-03-09T08:06:04.283Z,44.20
2024-03-09T08:11:14.550Z,45.13
2024-03-09T08:16:20.744Z,37.10
2024-03-09T08:21:27.917Z,35.42
2024-03-09T08:26:33.093Z,26.13
2024-03-09T08:31:35.086Z,23.92
2024-03-09T08:36:46.048Z,22.15
2024-03-09T08:41:49.036Z,22.88
2024-03-09T08:46:52.179Z,25.15
2024-03-09T08:51:56.288Z,27.25
2024-03-09T08:57:02.445Z,29.80
2024-03-09T09:02:19.837Z,25.63
2024-03-09T09:07:22.266Z,24.63
2024-03-09T09:12:24.429Z,27.50
2024-03-09T09:17:34.897Z,25.70
2024-03-09T09:27:42.277Z,26.02
2024-03-09T09:32:47.509Z,25.30
2024-03-09T09:37:54.507Z,23.15
2024-03-09T09:42:57.641Z,23.85
2024-03-09T09:48:00.822Z,24.73
2024-03-09T09:53:09.723Z,22.60
2024-03-09T09:58:12.234Z,21.73
2024-03-09T10:03:14.402Z,20.42
2024-03-09T10:08:16.537Z,21.50
2024-03-09T10:13:19.112Z,21.45
2024-03-09T10:18:22.779Z,22.27
2024-03-09T10:23:24.856Z,19.67
2024-03-09T10:28:28.106Z,18.80
2024-03-09T10:33:36.554Z,18.85
2024-03-09T10:38:39.728Z,18.75
2024-03-09T10:43:43.212Z,18.55
2024-03-09T10:48:53.261Z,18.58
2024-03-09T10:54:34.956Z,18.17
2024-03-09T10:59:43.902Z,16.75
2024-03-09T11:04:51.787Z,16.75
2024-03-09T11:09:55.261Z,15.40
2024-03-09T11:14:57.988Z,16.30
2024-03-09T11:20:01.420Z,15.93
2024-03-09T11:25:03.822Z,16.35
2024-03-09T11:30:10.229Z,16.27
2024-03-09T11:35:35.405Z,16.35
2024-03-09T11:40:43.469Z,16.17
2024-03-09T11:45:52.470Z,16.80
2024-03-09T11:50:55.198Z,13.02
2024-03-09T11:55:57.538Z,14.18
2024-03-09T12:01:03.278Z,11.73
2024-03-09T12:06:06.389Z,13.15
2024-03-09T12:11:08.485Z,12.95
2024-03-09T12:16:12.050Z,9.13
2024-03-09T12:21:15.231Z,12.32
2024-03-09T12:26:17.820Z,14.77
2024-03-09T12:31:28.973Z,14.45
2024-03-09T12:36:31.060Z,11.35
2024-03-09T12:41:34.173Z,17.17
2024-03-09T12:46:38.493Z,15.77
2024-03-09T12:51:52.593Z,15.68
2024-03-09T12:56:59.262Z,14.63
2024-03-09T13:02:02.468Z,15.80
2024-03-09T13:07:06.644Z,13.63
2024-03-09T13:12:10.101Z,12.93
2024-03-09T13:17:12.469Z,12.30
2024-03-09T13:22:14.684Z,13.43
2024-03-09T13:27:29.189Z,12.98
2024-03-09T13:32:33.696Z,14.15
2024-03-09T13:37:41.664Z,12.88
2024-03-09T13:42:47.530Z,13.82
2024-03-09T13:47:53.179Z,15.18
2024-03-09T13:52:57.347Z,14.18
2024-03-09T13:58:00.134Z,11.75
2024-03-09T14:03:12.116Z,13.30
2024-03-09T14:08:18.790Z,15.15
2024-03-09T14:13:27.818Z,13.98
2024-03-09T14:18:33.612Z,14.57
2024-03-09T14:23:44.460Z,14.23
2024-03-09T14:28:56.591Z,12.60
2024-03-09T14:33:59.860Z,13.25
2024-03-09T14:39:02.223Z,13.30
2024-03-09T14:44:06.665Z,11.88
2024-03-09T14:49:11.035Z,12.68
2024-03-09T14:54:18.745Z,13.20
2024-03-09T14:59:21.116Z,11.43
2024-03-09T15:04:24.168Z,10.60
2024-03-09T15:09:28.972Z,12.55
2024-03-09T15:14:33.447Z,15.15
2024-03-09T15:19:36.524Z,14.57
2024-03-09T15:24:38.553Z,13.73
2024-03-09T15:29:40.878Z,13.02
2024-03-09T15:34:43.368Z,13.88
2024-03-09T15:39:51.695Z,13.32
2024-03-09T15:44:53.942Z,12.55
2024-03-09T15:49:56.199Z,13.30
2024-03-09T15:55:07.441Z,13.18
2024-03-09T16:00:14.640Z,15.00
2024-03-09T16:05:21.514Z,13.70
2024-03-09T16:10:24.006Z,14.77
2024-03-09T16:15:32.709Z,15.93
2024-03-09T16:20:34.904Z,14.13
2024-03-09T16:25:40.842Z,15.75
2024-03-09T16:30:45.089Z,17.60
2024-03-09T16:35:49.953Z,14.13
2024-03-09T16:40:59.774Z,18.02
2024-03-09T16:46:07.211Z,15.85
2024-03-09T16:51:11.115Z,17.20
2024-03-09T16:56:18.536Z,14.45
2024-03-09T17:01:20.874Z,21.77
2024-03-09T17:06:23.088Z,27.90
2024-03-09T17:11:28.215Z,27.70
2024-03-09T17:16:31.502Z,28.15
2024-03-09T17:21:35.765Z,32.00
2024-03-09T17:26:37.995Z,28.05
2024-03-09T17:31:40.156Z,27.52
2024-03-09T17:36:43.333Z,27.63
2024-03-09T17:41:45.344Z,25.10
2024-03-09T17:46:47.563Z,26.10
2024-03-09T17:51:49.629Z,27.38
2024-03-09T17:56:51.730Z,29.05
2024-03-09T18:01:55.534Z,34.80
2024-03-09T18:07:01.236Z,40.50
2024-03-09T18:12:03.435Z,31.60
2024-03-09T18:17:06.963Z,33.13
2024-03-09T18:22:10.459Z,32.10
2024-03-09T18:27:17.420Z,34.97
2024-03-09T18:32:20.661Z,34.50
2024-03-09T18:37:28.806Z,28.45
2024-03-09T18:42:30.916Z,36.03
2024-03-09T18:47:34.124Z,37.25
2024-03-09T18:52:41.404Z,40.20
2024-03-09T18:57:45.160Z,44.60
2024-03-09T19:02:51.457Z,35.67
2024-03-09T19:08:05.553Z,37.08
2024-03-09T19:13:08.525Z,35.80
2024-03-09T19:18:19.422Z,36.47
2024-03-09T19:23:30.133Z,41.20
2024-03-09T19:28:38.339Z,39.55
2024-03-09T19:33:40.817Z,37.33
2024-03-09T19:38:51.760Z,35.80
2024-03-09T19:43:54.393Z,37.30
2024-03-09T19:49:00.077Z,37.95
2024-03-09T19:54:02.235Z,37.55
2024-03-09T19:59:20.218Z,36.10
2024-03-09T20:04:47.644Z,36.67
2024-03-09T20:09:56.074Z,39.85
2024-03-09T20:15:12.643Z,45.00
2024-03-09T20:20:21.738Z,42.42
2024-03-09T20:25:24.819Z,42.83
2024-03-09T20:30:29.441Z,40.03
2024-03-09T20:35:48.561Z,38.08
2024-03-09T20:40:51.062Z,38.10
2024-03-09T20:45:55.788Z,33.13
2024-03-09T20:51:00.315Z,36.08
2024-03-09T20:56:09.497Z,32.55
2024-03-09T21:01:14.814Z,38.70
2024-03-09T21:06:23.653Z,35.25
2024-03-09T21:11:25.744Z,37.63
2024-03-09T21:16:29.965Z,37.63
2024-03-09T21:26:47.357Z,36.03
2024-03-09T21:31:51.499Z,36.95
2024-03-09T21:36:55.678Z,36.72
2024-03-09T21:42:15.701Z,37.42
2024-03-09T21:47:35.211Z,35.42
2024-03-09T21:52:46.767Z,38.22
2024-03-09T21:58:07.452Z,38.80
2024-03-09T22:03:16.471Z,38.47
2024-03-09T22:08:26.718Z,34.60
2024-03-09T22:13:34.664Z,36.33
2024-03-09T22:18:42.789Z,44.85
2024-03-09T22:23:44.828Z,35.03
2024-03-09T22:29:05.156Z,37.42
2024-03-09T22:34:07.240Z,36.13
2024-03-09T22:39:10.290Z,37.22
2024-03-09T22:44:12.290Z,37.78
2024-03-09T22:49:19.276Z,39.95
2024-03-09T22:54:24.496Z,40.22
2024-03-09T22:59:29.544Z,41.33
2024-03-09T23:04:52.059Z,41.17
2024-03-09T23:09:59.947Z,41.97
2024-03-09T23:15:17.341Z,40.75
2024-03-09T23:20:24.886Z,38.75
2024-03-09T23:25:30.393Z,45.20
2024-03-09T23:30:38.969Z,40.97
2024-03-09T23:35:41.951Z,40.08
2024-03-09T23:40:43.985Z,41.17
2024-03-09T23:45:57.258Z,41.78
2024-03-09T23:50:59.686Z,39.70
2024-03-09T23:56:01.712Z,42.35
